Terminal Aerodrome Forecast
Issued by NWS Cleveland, OH

Home | Current Version | Previous Version | Text Only | Print | Product List | Glossary Off
Versions: 1 2 3 4 5 6 7 8 9 10 11 12 13

000
FTUS41 KCLE 170543
TAFYNG
TAF
KYNG 170543Z 1706/1806 23006KT P6SM SCT045 BKN250
     FM170700 24006KT P6SM BKN020
     FM171800 23010KT P6SM BKN035
     FM180000 23010KT P6SM SCT030 BKN150=

USA.gov is the U.S. government's official web portal to all federal, state and local government web resources and services.